sensor_id;sensor_type;location;lat;lon;timestamp;temperature;humidity
18317;DHT22;9284;52.298;21.164;2024-03-23T00:53:35;8.90;1.00
18317;DHT22;9284;52.298;21.164;2024-03-23T00:56:01;8.90;1.00
18317;DHT22;9284;52.298;21.164;2024-03-23T00:58:29;8.90;1.00
18317;DHT22;9284;52.298;21.164;2024-03-23T01:00:55;8.80;1.00
18317;DHT22;9284;52.298;21.164;2024-03-23T01:03:22;8.80;1.00
18317;DHT22;9284;52.298;21.164;2024-03-23T01:05:48;8.70;1.00
18317;DHT22;9284;52.298;21.164;2024-03-23T01:08:16;8.80;1.00
18317;DHT22;9284;52.298;21.164;2024-03-23T01:10:54;8.80;1.00
18317;DHT22;9284;52.298;21.164;2024-03-23T01:13:21;8.70;1.00
18317;DHT22;9284;52.298;21.164;2024-03-23T01:15:49;8.90;1.00
18317;DHT22;9284;52.298;21.164;2024-03-23T01:18:17;8.80;1.00
18317;DHT22;9284;52.298;21.164;2024-03-23T01:20:43;8.70;1.00
18317;DHT22;9284;52.298;21.164;2024-03-23T01:23:11;8.80;1.00
18317;DHT22;9284;52.298;21.164;2024-03-23T01:25:37;8.80;1.00
18317;DHT22;9284;52.298;21.164;2024-03-23T01:28:06;8.70;6.00
18317;DHT22;9284;52.298;21.164;2024-03-23T01:30:33;8.70;17.40
18317;DHT22;9284;52.298;21.164;2024-03-23T01:33:00;8.70;25.30
18317;DHT22;9284;52.298;21.164;2024-03-23T01:35:27;8.70;33.20
18317;DHT22;9284;52.298;21.164;2024-03-23T01:37:54;8.70;41.20
18317;DHT22;9284;52.298;21.164;2024-03-23T01:40:20;8.70;48.30
18317;DHT22;9284;52.298;21.164;2024-03-23T01:42:57;8.70;54.10
18317;DHT22;9284;52.298;21.164;2024-03-23T01:45:25;8.70;62.90
18317;DHT22;9284;52.298;21.164;2024-03-23T01:47:52;8.70;72.60
18317;DHT22;9284;52.298;21.164;2024-03-23T01:50:19;8.70;83.40
18317;DHT22;9284;52.298;21.164;2024-03-23T01:52:47;8.80;90.60
18317;DHT22;9284;52.298;21.164;2024-03-23T01:55:14;8.70;94.10
18317;DHT22;9284;52.298;21.164;2024-03-23T01:57:42;8.70;97.40
18317;DHT22;9284;52.298;21.164;2024-03-23T02:00:09;8.70;99.90
18317;DHT22;9284;52.298;21.164;2024-03-23T02:02:42;8.70;99.90
18317;DHT22;9284;52.298;21.164;2024-03-23T02:05:10;8.80;99.90
18317;DHT22;9284;52.298;21.164;2024-03-23T02:07:38;8.80;99.90
18317;DHT22;9284;52.298;21.164;2024-03-23T02:10:05;8.80;99.90
18317;DHT22;9284;52.298;21.164;2024-03-23T02:12:33;8.80;99.90
18317;DHT22;9284;52.298;21.164;2024-03-23T02:14:59;8.80;99.90
18317;DHT22;9284;52.298;21.164;2024-03-23T02:17:28;8.80;99.90
18317;DHT22;9284;52.298;21.164;2024-03-23T02:19:56;8.80;99.90
18317;DHT22;9284;52.298;21.164;2024-03-23T02:22:23;8.80;99.90
18317;DHT22;9284;52.298;21.164;2024-03-23T02:24:51;8.90;99.90
18317;DHT22;9284;52.298;21.164;2024-03-23T02:27:18;8.80;99.90
18317;DHT22;9284;52.298;21.164;2024-03-23T02:29:44;8.80;99.90
18317;DHT22;9284;52.298;21.164;2024-03-23T02:32:12;8.90;99.90
18317;DHT22;9284;52.298;21.164;2024-03-23T02:34:38;8.80;99.90
18317;DHT22;9284;52.298;21.164;2024-03-23T02:37:10;8.80;99.90
18317;DHT22;9284;52.298;21.164;2024-03-23T02:39:37;8.80;99.90
18317;DHT22;9284;52.298;21.164;2024-03-23T02:42:06;8.80;99.90
18317;DHT22;9284;52.298;21.164;2024-03-23T02:44:32;8.80;99.90
18317;DHT22;9284;52.298;21.164;2024-03-23T02:46:59;8.70;99.90
18317;DHT22;9284;52.298;21.164;2024-03-23T02:49:27;8.90;99.90
18317;DHT22;9284;52.298;21.164;2024-03-23T02:51:54;8.90;99.90
18317;DHT22;9284;52.298;21.164;2024-03-23T02:54:21;8.90;99.90
18317;DHT22;9284;52.298;21.164;2024-03-23T02:56:47;8.90;99.90
18317;DHT22;9284;52.298;21.164;2024-03-23T02:59:16;8.90;99.90
18317;DHT22;9284;52.298;21.164;2024-03-23T03:01:42;8.90;99.90
18317;DHT22;9284;52.298;21.164;2024-03-23T03:04:10;8.90;99.90
18317;DHT22;9284;52.298;21.164;2024-03-23T03:06:36;8.90;99.90
18317;DHT22;9284;52.298;21.164;2024-03-23T03:09:03;8.90;99.90
18317;DHT22;9284;52.298;21.164;2024-03-23T03:11:30;8.90;99.90
18317;DHT22;9284;52.298;21.164;2024-03-23T03:13:58;8.90;99.90
18317;DHT22;9284;52.298;21.164;2024-03-23T03:16:27;8.90;99.90
18317;DHT22;9284;52.298;21.164;2024-03-23T03:18:55;9.00;99.90
18317;DHT22;9284;52.298;21.164;2024-03-23T03:21:21;9.00;99.90
18317;DHT22;9284;52.298;21.164;2024-03-23T03:23:49;9.00;99.90
18317;DHT22;9284;52.298;21.164;2024-03-23T03:26:16;9.00;99.90
18317;DHT22;9284;52.298;21.164;2024-03-23T03:28:43;9.00;99.90
18317;DHT22;9284;52.298;21.164;2024-03-23T03:31:14;9.00;99.90
18317;DHT22;9284;52.298;21.164;2024-03-23T03:33:43;9.00;99.90
18317;DHT22;9284;52.298;21.164;2024-03-23T03:36:10;9.10;99.90
18317;DHT22;9284;52.298;21.164;2024-03-23T03:38:37;9.10;99.90
18317;DHT22;9284;52.298;21.164;2024-03-23T03:41:04;9.10;99.90
18317;DHT22;9284;52.298;21.164;2024-03-23T03:43:32;9.10;99.90
18317;DHT22;9284;52.298;21.164;2024-03-23T03:46:00;9.10;99.90
18317;DHT22;9284;52.298;21.164;2024-03-23T03:48:27;9.10;99.90
18317;DHT22;9284;52.298;21.164;2024-03-23T03:50:55;9.10;99.90
18317;DHT22;9284;52.298;21.164;2024-03-23T03:53:22;9.10;99.90
18317;DHT22;9284;52.298;21.164;2024-03-23T03:55:49;9.10;99.90
18317;DHT22;9284;52.298;21.164;2024-03-23T03:58:15;9.20;99.90
18317;DHT22;9284;52.298;21.164;2024-03-23T04:00:43;9.10;99.90
18317;DHT22;9284;52.298;21.164;2024-03-23T04:03:09;9.10;99.90
18317;DHT22;9284;52.298;21.164;2024-03-23T04:05:36;9.10;99.90
18317;DHT22;9284;52.298;21.164;2024-03-23T04:08:06;9.10;99.90
18317;DHT22;9284;52.298;21.164;2024-03-23T04:10:34;9.10;99.90
18317;DHT22;9284;52.298;21.164;2024-03-23T04:13:01;9.10;99.90
18317;DHT22;9284;52.298;21.164;2024-03-23T04:15:30;9.20;99.90
18317;DHT22;9284;52.298;21.164;2024-03-23T04:17:56;9.20;99.90
18317;DHT22;9284;52.298;21.164;2024-03-23T04:20:23;9.20;99.90
18317;DHT22;9284;52.298;21.164;2024-03-23T04:22:50;9.20;99.90
18317;DHT22;9284;52.298;21.164;2024-03-23T04:25:18;9.20;99.90
18317;DHT22;9284;52.298;21.164;2024-03-23T04:27:45;9.20;99.90
18317;DHT22;9284;52.298;21.164;2024-03-23T04:30:13;9.20;99.90
18317;DHT22;9284;52.298;21.164;2024-03-23T04:32:40;9.20;99.90
18317;DHT22;9284;52.298;21.164;2024-03-23T04:35:08;9.20;99.90
18317;DHT22;9284;52.298;21.164;2024-03-23T04:37:35;9.30;99.90
18317;DHT22;9284;52.298;21.164;2024-03-23T04:40:03;9.30;99.90
18317;DHT22;9284;52.298;21.164;2024-03-23T04:42:32;9.20;99.90
18317;DHT22;9284;52.298;21.164;2024-03-23T04:45:00;9.20;99.90
18317;DHT22;9284;52.298;21.164;2024-03-23T04:47:27;9.30;99.90
18317;DHT22;9284;52.298;21.164;2024-03-23T04:49:55;9.30;99.90
18317;DHT22;9284;52.298;21.164;2024-03-23T04:52:22;9.30;99.90
18317;DHT22;9284;52.298;21.164;2024-03-23T04:54:49;9.30;99.90
18317;DHT22;9284;52.298;21.164;2024-03-23T04:57:17;9.30;99.90
18317;DHT22;9284;52.298;21.164;2024-03-23T04:59:47;9.30;99.90
18317;DHT22;9284;52.298;21.164;2024-03-23T05:02:15;9.30;99.90
18317;DHT22;9284;52.298;21.164;2024-03-23T05:04:42;9.30;99.90
18317;DHT22;9284;52.298;21.164;2024-03-23T05:07:09;9.30;99.90
18317;DHT22;9284;52.298;21.164;2024-03-23T05:09:35;9.40;99.90
18317;DHT22;9284;52.298;21.164;2024-03-23T05:12:03;9.30;99.90
18317;DHT22;9284;52.298;21.164;2024-03-23T05:14:30;9.40;99.90
18317;DHT22;9284;52.298;21.164;2024-03-23T05:16:58;9.40;99.90
18317;DHT22;9284;52.298;21.164;2024-03-23T05:19:24;9.40;99.90
18317;DHT22;9284;52.298;21.164;2024-03-23T05:21:52;9.40;99.90
18317;DHT22;9284;52.298;21.164;2024-03-23T05:24:19;9.40;99.90
18317;DHT22;9284;52.298;21.164;2024-03-23T05:26:46;9.50;99.90
18317;DHT22;9284;52.298;21.164;2024-03-23T05:29:12;9.50;99.90
18317;DHT22;9284;52.298;21.164;2024-03-23T05:31:40;9.50;99.90
18317;DHT22;9284;52.298;21.164;2024-03-23T05:34:09;9.50;99.90
18317;DHT22;9284;52.298;21.164;2024-03-23T05:36:36;9.50;99.90
18317;DHT22;9284;52.298;21.164;2024-03-23T05:39:03;9.50;99.90
18317;DHT22;9284;52.298;21.164;2024-03-23T05:41:30;9.50;99.90
18317;DHT22;9284;52.298;21.164;2024-03-23T05:43:56;9.50;99.90
18317;DHT22;9284;52.298;21.164;2024-03-23T05:46:24;9.50;99.90
18317;DHT22;9284;52.298;21.164;2024-03-23T05:48:50;9.50;99.90
18317;DHT22;9284;52.298;21.164;2024-03-23T05:51:27;9.50;99.90
18317;DHT22;9284;52.298;21.164;2024-03-23T05:53:53;9.70;99.90
18317;DHT22;9284;52.298;21.164;2024-03-23T05:56:20;9.50;99.90
18317;DHT22;9284;52.298;21.164;2024-03-23T05:58:47;9.50;99.90
18317;DHT22;9284;52.298;21.164;2024-03-23T06:01:14;9.50;99.90
18317;DHT22;9284;52.298;21.164;2024-03-23T06:03:41;9.50;99.90
18317;DHT22;9284;52.298;21.164;2024-03-23T06:06:09;9.60;99.90
18317;DHT22;9284;52.298;21.164;2024-03-23T06:08:39;9.60;99.90
18317;DHT22;9284;52.298;21.164;2024-03-23T06:11:06;9.60;99.90
18317;DHT22;9284;52.298;21.164;2024-03-23T06:13:33;9.60;99.90
18317;DHT22;9284;52.298;21.164;2024-03-23T06:16:01;9.60;99.90
18317;DHT22;9284;52.298;21.164;2024-03-23T06:18:27;9.60;99.90
18317;DHT22;9284;52.298;21.164;2024-03-23T06:20:54;9.60;99.90
18317;DHT22;9284;52.298;21.164;2024-03-23T06:23:21;9.60;99.90
18317;DHT22;9284;52.298;21.164;2024-03-23T06:25:49;9.60;99.90
18317;DHT22;9284;52.298;21.164;2024-03-23T06:28:16;9.60;99.90
18317;DHT22;9284;52.298;21.164;2024-03-23T06:30:44;9.60;99.90
18317;DHT22;9284;52.298;21.164;2024-03-23T06:33:10;9.70;99.90
18317;DHT22;9284;52.298;21.164;2024-03-23T06:35:37;9.70;99.90
18317;DHT22;9284;52.298;21.164;2024-03-23T06:38:04;9.70;99.90
18317;DHT22;9284;52.298;21.164;2024-03-23T06:40:31;9.70;99.90
18317;DHT22;9284;52.298;21.164;2024-03-23T06:42:59;9.70;99.90
18317;DHT22;9284;52.298;21.164;2024-03-23T06:45:26;9.70;99.90
18317;DHT22;9284;52.298;21.164;2024-03-23T06:47:52;9.70;99.90
18317;DHT22;9284;52.298;21.164;2024-03-23T06:50:21;9.70;99.90
18317;DHT22;9284;52.298;21.164;2024-03-23T06:52:49;9.70;99.90
18317;DHT22;9284;52.298;21.164;2024-03-23T06:55:17;9.70;99.90
18317;DHT22;9284;52.298;21.164;2024-03-23T06:57:43;9.70;99.90
18317;DHT22;9284;52.298;21.164;2024-03-23T07:00:13;9.70;99.90
18317;DHT22;9284;52.298;21.164;2024-03-23T07:02:41;9.70;99.90
18317;DHT22;9284;52.298;21.164;2024-03-23T07:05:10;9.70;99.90
18317;DHT22;9284;52.298;21.164;2024-03-23T07:07:37;9.70;99.90
18317;DHT22;9284;52.298;21.164;2024-03-23T07:10:06;9.80;99.90
18317;DHT22;9284;52.298;21.164;2024-03-23T07:12:32;9.80;99.90
18317;DHT22;9284;52.298;21.164;2024-03-23T07:14:59;9.80;99.90
18317;DHT22;9284;52.298;21.164;2024-03-23T07:17:27;10.00;99.90
18317;DHT22;9284;52.298;21.164;2024-03-23T07:19:54;9.90;99.90
18317;DHT22;9284;52.298;21.164;2024-03-23T07:22:21;10.10;99.90
18317;DHT22;9284;52.298;21.164;2024-03-23T07:24:50;9.90;99.90
18317;DHT22;9284;52.298;21.164;2024-03-23T07:27:16;9.90;99.90
18317;DHT22;9284;52.298;21.164;2024-03-23T07:29:43;10.00;99.90
18317;DHT22;9284;52.298;21.164;2024-03-23T07:32:11;10.00;99.90
18317;DHT22;9284;52.298;21.164;2024-03-23T07:34:40;10.00;99.90
18317;DHT22;9284;52.298;21.164;2024-03-23T07:37:06;10.00;99.90
18317;DHT22;9284;52.298;21.164;2024-03-23T07:39:34;10.00;99.90
18317;DHT22;9284;52.298;21.164;2024-03-23T07:42:01;10.00;99.90
18317;DHT22;9284;52.298;21.164;2024-03-23T07:44:28;10.10;99.90
18317;DHT22;9284;52.298;21.164;2024-03-23T07:46:54;10.00;99.90
18317;DHT22;9284;52.298;21.164;2024-03-23T07:49:22;10.00;99.90
18317;DHT22;9284;52.298;21.164;2024-03-23T07:51:49;10.00;99.90
18317;DHT22;9284;52.298;21.164;2024-03-23T07:54:17;10.00;99.90
18317;DHT22;9284;52.298;21.164;2024-03-23T07:56:43;10.00;99.90
18317;DHT22;9284;52.298;21.164;2024-03-23T07:59:11;10.00;99.90
18317;DHT22;9284;52.298;21.164;2024-03-23T08:01:37;10.00;99.90
18317;DHT22;9284;52.298;21.164;2024-03-23T08:04:05;10.00;99.90
18317;DHT22;9284;52.298;21.164;2024-03-23T08:06:32;10.10;99.90
18317;DHT22;9284;52.298;21.164;2024-03-23T08:09:00;10.00;99.90
18317;DHT22;9284;52.298;21.164;2024-03-23T08:11:27;10.00;99.90
18317;DHT22;9284;52.298;21.164;2024-03-23T08:13:55;10.00;99.90
18317;DHT22;9284;52.298;21.164;2024-03-23T08:16:21;10.10;99.90
18317;DHT22;9284;52.298;21.164;2024-03-23T08:18:51;10.20;99.90
18317;DHT22;9284;52.298;21.164;2024-03-23T08:21:17;10.20;99.90
18317;DHT22;9284;52.298;21.164;2024-03-23T08:23:45;10.10;99.90
18317;DHT22;9284;52.298;21.164;2024-03-23T08:26:16;10.20;99.90
18317;DHT22;9284;52.298;21.164;2024-03-23T08:28:43;10.30;99.90
18317;DHT22;9284;52.298;21.164;2024-03-23T08:31:11;10.40;99.90
18317;DHT22;9284;52.298;21.164;2024-03-23T08:33:39;10.40;99.90
18317;DHT22;9284;52.298;21.164;2024-03-23T08:36:06;10.40;99.90
18317;DHT22;9284;52.298;21.164;2024-03-23T08:38:34;10.40;99.90
18317;DHT22;9284;52.298;21.164;2024-03-23T08:41:02;10.40;99.90
18317;DHT22;9284;52.298;21.164;2024-03-23T08:43:33;10.40;99.90
18317;DHT22;9284;52.298;21.164;2024-03-23T08:46:04;10.30;99.90
18317;DHT22;9284;52.298;21.164;2024-03-23T08:48:31;10.30;99.90
18317;DHT22;9284;52.298;21.164;2024-03-23T08:51:00;10.40;99.90
18317;DHT22;9284;52.298;21.164;2024-03-23T08:53:28;10.30;99.90
18317;DHT22;9284;52.298;21.164;2024-03-23T08:55:54;10.50;99.90
18317;DHT22;9284;52.298;21.164;2024-03-23T08:58:23;10.70;99.90
18317;DHT22;9284;52.298;21.164;2024-03-23T09:00:51;10.90;99.90
18317;DHT22;9284;52.298;21.164;2024-03-23T09:03:21;11.10;99.90
18317;DHT22;9284;52.298;21.164;2024-03-23T09:05:48;11.30;99.90
18317;DHT22;9284;52.298;21.164;2024-03-23T09:08:15;11.70;99.90
18317;DHT22;9284;52.298;21.164;2024-03-23T09:10:42;11.90;99.90
18317;DHT22;9284;52.298;21.164;2024-03-23T09:13:09;12.00;85.30
18317;DHT22;9284;52.298;21.164;2024-03-23T09:15:37;11.90;1.00
18317;DHT22;9284;52.298;21.164;2024-03-23T09:18:06;12.00;1.00
18317;DHT22;9284;52.298;21.164;2024-03-23T09:20:33;11.90;1.00
18317;DHT22;9284;52.298;21.164;2024-03-23T09:23:00;11.70;99.90
18317;DHT22;9284;52.298;21.164;2024-03-23T09:25:26;11.80;99.90
18317;DHT22;9284;52.298;21.164;2024-03-23T09:27:54;11.80;1.00
18317;DHT22;9284;52.298;21.164;2024-03-23T09:30:20;11.80;99.90
18317;DHT22;9284;52.298;21.164;2024-03-23T09:32:47;12.00;1.00
18317;DHT22;9284;52.298;21.164;2024-03-23T09:35:15;12.00;99.90
18317;DHT22;9284;52.298;21.164;2024-03-23T09:37:42;11.90;1.00
18317;DHT22;9284;52.298;21.164;2024-03-23T09:40:11;12.00;99.90
18317;DHT22;9284;52.298;21.164;2024-03-23T09:42:38;11.90;1.00
18317;DHT22;9284;52.298;21.164;2024-03-23T09:45:06;12.00;4.60
18317;DHT22;9284;52.298;21.164;2024-03-23T09:47:38;12.10;37.70
18317;DHT22;9284;52.298;21.164;2024-03-23T09:50:07;12.00;99.90
18317;DHT22;9284;52.298;21.164;2024-03-23T09:52:36;12.00;1.00
18317;DHT22;9284;52.298;21.164;2024-03-23T09:55:04;12.10;1.00
18317;DHT22;9284;52.298;21.164;2024-03-23T09:57:30;12.30;99.90
18317;DHT22;9284;52.298;21.164;2024-03-23T09:59:57;12.40;99.90
18317;DHT22;9284;52.298;21.164;2024-03-23T10:02:24;12.30;33.00
18317;DHT22;9284;52.298;21.164;2024-03-23T10:04:52;12.40;1.00
18317;DHT22;9284;52.298;21.164;2024-03-23T10:07:19;12.50;1.00
18317;DHT22;9284;52.298;21.164;2024-03-23T10:09:49;12.60;1.00
18317;DHT22;9284;52.298;21.164;2024-03-23T10:12:17;12.80;1.00
18317;DHT22;9284;52.298;21.164;2024-03-23T10:14:45;13.00;99.90
18317;DHT22;9284;52.298;21.164;2024-03-23T10:17:14;13.20;1.00
18317;DHT22;9284;52.298;21.164;2024-03-23T10:19:43;13.40;11.40
18317;DHT22;9284;52.298;21.164;2024-03-23T10:22:13;13.40;99.90
18317;DHT22;9284;52.298;21.164;2024-03-23T10:24:42;13.40;1.00
18317;DHT22;9284;52.298;21.164;2024-03-23T10:27:14;13.60;99.90
18317;DHT22;9284;52.298;21.164;2024-03-23T10:29:42;13.70;1.00
18317;DHT22;9284;52.298;21.164;2024-03-23T10:32:09;13.70;99.90
18317;DHT22;9284;52.298;21.164;2024-03-23T10:34:37;13.80;35.70
18317;DHT22;9284;52.298;21.164;2024-03-23T10:37:04;13.80;1.00
18317;DHT22;9284;52.298;21.164;2024-03-23T10:39:33;14.00;99.90
18317;DHT22;9284;52.298;21.164;2024-03-23T10:42:04;14.10;99.90
18317;DHT22;9284;52.298;21.164;2024-03-23T10:44:33;14.20;1.00
18317;DHT22;9284;52.298;21.164;2024-03-23T10:47:00;14.30;1.00
18317;DHT22;9284;52.298;21.164;2024-03-23T10:49:29;14.10;99.90
18317;DHT22;9284;52.298;21.164;2024-03-23T10:51:57;14.20;99.90
18317;DHT22;9284;52.298;21.164;2024-03-23T10:54:25;14.10;1.00
18317;DHT22;9284;52.298;21.164;2024-03-23T10:56:54;14.40;1.00
18317;DHT22;9284;52.298;21.164;2024-03-23T10:59:24;14.60;1.00
18317;DHT22;9284;52.298;21.164;2024-03-23T11:01:56;14.80;99.90
18317;DHT22;9284;52.298;21.164;2024-03-23T11:04:33;15.20;1.00
18317;DHT22;9284;52.298;21.164;2024-03-23T11:07:00;15.40;1.00
18317;DHT22;9284;52.298;21.164;2024-03-23T11:09:41;15.50;99.90
18317;DHT22;9284;52.298;21.164;2024-03-23T11:12:25;15.80;99.90
18317;DHT22;9284;52.298;21.164;2024-03-23T11:14:54;15.80;1.00
18317;DHT22;9284;52.298;21.164;2024-03-23T11:17:23;16.30;1.00
18317;DHT22;9284;52.298;21.164;2024-03-23T11:19:54;16.50;1.00
18317;DHT22;9284;52.298;21.164;2024-03-23T11:22:38;16.50;1.00
18317;DHT22;9284;52.298;21.164;2024-03-23T11:25:16;16.70;99.90
18317;DHT22;9284;52.298;21.164;2024-03-23T11:27:44;16.20;99.90
18317;DHT22;9284;52.298;21.164;2024-03-23T11:30:16;15.90;1.00
18317;DHT22;9284;52.298;21.164;2024-03-23T11:32:46;16.00;1.00
18317;DHT22;9284;52.298;21.164;2024-03-23T11:35:35;16.00;1.00
18317;DHT22;9284;52.298;21.164;2024-03-23T11:38:03;15.80;99.90
18317;DHT22;9284;52.298;21.164;2024-03-23T11:40:31;16.10;99.90
18317;DHT22;9284;52.298;21.164;2024-03-23T11:42:58;16.10;99.90
18317;DHT22;9284;52.298;21.164;2024-03-23T11:45:26;16.10;99.90
18317;DHT22;9284;52.298;21.164;2024-03-23T11:48:06;16.10;99.90
18317;DHT22;9284;52.298;21.164;2024-03-23T11:50:36;15.90;99.90
18317;DHT22;9284;52.298;21.164;2024-03-23T11:53:14;15.70;99.90
18317;DHT22;9284;52.298;21.164;2024-03-23T11:55:43;15.50;99.90
18317;DHT22;9284;52.298;21.164;2024-03-23T11:58:10;15.50;1.00
18317;DHT22;9284;52.298;21.164;2024-03-23T12:00:38;15.40;1.00
18317;DHT22;9284;52.298;21.164;2024-03-23T12:03:06;15.30;1.00
18317;DHT22;9284;52.298;21.164;2024-03-23T12:05:34;15.30;99.90
18317;DHT22;9284;52.298;21.164;2024-03-23T12:08:19;15.30;99.90
18317;DHT22;9284;52.298;21.164;2024-03-23T12:10:49;15.40;99.90
18317;DHT22;9284;52.298;21.164;2024-03-23T12:13:20;15.40;99.90
18317;DHT22;9284;52.298;21.164;2024-03-23T12:15:49;15.40;99.90
18317;DHT22;9284;52.298;21.164;2024-03-23T12:18:17;15.50;99.90
18317;DHT22;9284;52.298;21.164;2024-03-23T12:20:44;15.60;99.90
18317;DHT22;9284;52.298;21.164;2024-03-23T12:23:13;15.70;99.90
18317;DHT22;9284;52.298;21.164;2024-03-23T12:25:43;15.90;99.90
18317;DHT22;9284;52.298;21.164;2024-03-23T12:28:09;15.80;99.90
18317;DHT22;9284;52.298;21.164;2024-03-23T12:30:39;15.80;99.90
18317;DHT22;9284;52.298;21.164;2024-03-23T12:33:06;15.80;99.90
18317;DHT22;9284;52.298;21.164;2024-03-23T12:35:35;15.60;99.90
18317;DHT22;9284;52.298;21.164;2024-03-23T12:38:01;15.60;99.90
18317;DHT22;9284;52.298;21.164;2024-03-23T12:40:28;15.70;80.50
18317;DHT22;9284;52.298;21.164;2024-03-23T12:42:55;15.90;12.30
18317;DHT22;9284;52.298;21.164;2024-03-23T12:45:23;16.00;1.00
18317;DHT22;9284;52.298;21.164;2024-03-23T12:47:49;16.10;1.00
18317;DHT22;9284;52.298;21.164;2024-03-23T12:50:18;16.10;1.00
18317;DHT22;9284;52.298;21.164;2024-03-23T12:52:46;16.00;1.00
18317;DHT22;9284;52.298;21.164;2024-03-23T12:55:13;15.90;1.00
18317;DHT22;9284;52.298;21.164;2024-03-23T12:57:39;15.80;1.00
18317;DHT22;9284;52.298;21.164;2024-03-23T13:00:08;15.80;1.00
18317;DHT22;9284;52.298;21.164;2024-03-23T13:02:37;15.70;1.00
18317;DHT22;9284;52.298;21.164;2024-03-23T13:05:06;15.60;1.00
18317;DHT22;9284;52.298;21.164;2024-03-23T13:07:33;15.50;1.00
18317;DHT22;9284;52.298;21.164;2024-03-23T13:10:02;15.40;1.00
18317;DHT22;9284;52.298;21.164;2024-03-23T13:12:30;15.20;1.00
18317;DHT22;9284;52.298;21.164;2024-03-23T13:14:58;15.10;1.00
18317;DHT22;9284;52.298;21.164;2024-03-23T13:17:25;14.90;10.90
18317;DHT22;9284;52.298;21.164;2024-03-23T13:19:54;14.80;1.00
18317;DHT22;9284;52.298;21.164;2024-03-23T13:22:21;14.70;1.00
18317;DHT22;9284;52.298;21.164;2024-03-23T13:24:49;14.70;1.00
18317;DHT22;9284;52.298;21.164;2024-03-23T13:27:17;14.70;37.00
18317;DHT22;9284;52.298;21.164;2024-03-23T13:29:44;14.70;99.90
18317;DHT22;9284;52.298;21.164;2024-03-23T13:32:12;14.70;99.90
18317;DHT22;9284;52.298;21.164;2024-03-23T13:34:39;14.70;99.90
18317;DHT22;9284;52.298;21.164;2024-03-23T13:37:06;14.80;99.90
18317;DHT22;9284;52.298;21.164;2024-03-23T13:39:34;14.70;99.90
18317;DHT22;9284;52.298;21.164;2024-03-23T13:42:00;14.70;99.90
18317;DHT22;9284;52.298;21.164;2024-03-23T13:44:28;14.70;99.90
18317;DHT22;9284;52.298;21.164;2024-03-23T13:46:55;14.70;99.90
18317;DHT22;9284;52.298;21.164;2024-03-23T13:49:27;14.70;99.90
18317;DHT22;9284;52.298;21.164;2024-03-23T13:51:53;14.60;99.90
18317;DHT22;9284;52.298;21.164;2024-03-23T13:54:21;14.60;99.90
18317;DHT22;9284;52.298;21.164;2024-03-23T13:56:48;14.60;99.90
18317;DHT22;9284;52.298;21.164;2024-03-23T13:59:16;14.70;99.90
18317;DHT22;9284;52.298;21.164;2024-03-23T14:01:44;14.70;1.00
18317;DHT22;9284;52.298;21.164;2024-03-23T14:04:12;14.60;1.00
18317;DHT22;9284;52.298;21.164;2024-03-23T14:06:38;14.60;1.00
18317;DHT22;9284;52.298;21.164;2024-03-23T14:09:06;14.60;1.00
18317;DHT22;9284;52.298;21.164;2024-03-23T14:11:35;14.50;1.00
18317;DHT22;9284;52.298;21.164;2024-03-23T14:14:02;14.40;1.00
18317;DHT22;9284;52.298;21.164;2024-03-23T14:16:29;14.40;1.00
18317;DHT22;9284;52.298;21.164;2024-03-23T14:18:58;14.30;1.00
18317;DHT22;9284;52.298;21.164;2024-03-23T14:21:24;14.20;13.20
18317;DHT22;9284;52.298;21.164;2024-03-23T14:23:51;14.10;99.90
18317;DHT22;9284;52.298;21.164;2024-03-23T14:26:18;14.00;99.90
18317;DHT22;9284;52.298;21.164;2024-03-23T14:28:45;13.90;99.90
18317;DHT22;9284;52.298;21.164;2024-03-23T14:31:11;13.80;99.90
18317;DHT22;9284;52.298;21.164;2024-03-23T14:33:39;13.80;1.00
18317;DHT22;9284;52.298;21.164;2024-03-23T14:36:13;13.70;99.90
18317;DHT22;9284;52.298;21.164;2024-03-23T14:38:40;13.60;1.00
18317;DHT22;9284;52.298;21.164;2024-03-23T14:41:07;13.60;99.90
18317;DHT22;9284;52.298;21.164;2024-03-23T14:43:34;13.60;82.70
18317;DHT22;9284;52.298;21.164;2024-03-23T14:46:08;13.60;99.90
18317;DHT22;9284;52.298;21.164;2024-03-23T14:48:36;13.60;99.90
18317;DHT22;9284;52.298;21.164;2024-03-23T14:51:03;13.50;99.90
18317;DHT22;9284;52.298;21.164;2024-03-23T14:53:33;13.50;99.90
18317;DHT22;9284;52.298;21.164;2024-03-23T14:55:59;13.50;99.90
18317;DHT22;9284;52.298;21.164;2024-03-23T14:58:27;13.40;1.00
18317;DHT22;9284;52.298;21.164;2024-03-23T15:01:00;13.40;1.00
18317;DHT22;9284;52.298;21.164;2024-03-23T15:03:27;13.40;75.80
18317;DHT22;9284;52.298;21.164;2024-03-23T15:05:55;13.30;99.90
18317;DHT22;9284;52.298;21.164;2024-03-23T15:08:22;13.30;1.00
18317;DHT22;9284;52.298;21.164;2024-03-23T15:10:50;13.20;99.90
18317;DHT22;9284;52.298;21.164;2024-03-23T15:13:18;13.20;1.00
18317;DHT22;9284;52.298;21.164;2024-03-23T15:15:45;13.00;1.00
18317;DHT22;9284;52.298;21.164;2024-03-23T15:18:14;12.90;1.00
18317;DHT22;9284;52.298;21.164;2024-03-23T15:20:41;12.70;99.90
18317;DHT22;9284;52.298;21.164;2024-03-23T15:23:08;12.50;99.90
18317;DHT22;9284;52.298;21.164;2024-03-23T15:25:35;12.40;99.90
18317;DHT22;9284;52.298;21.164;2024-03-23T15:28:04;12.30;99.90
18317;DHT22;9284;52.298;21.164;2024-03-23T15:30:30;12.20;99.90
18317;DHT22;9284;52.298;21.164;2024-03-23T15:32:57;12.00;1.00
18317;DHT22;9284;52.298;21.164;2024-03-23T15:35:24;11.90;1.00
18317;DHT22;9284;52.298;21.164;2024-03-23T15:37:51;11.80;99.90
18317;DHT22;9284;52.298;21.164;2024-03-23T15:40:17;11.60;1.00
18317;DHT22;9284;52.298;21.164;2024-03-23T15:42:44;11.50;1.00
18317;DHT22;9284;52.298;21.164;2024-03-23T15:45:12;11.50;1.00
18317;DHT22;9284;52.298;21.164;2024-03-23T15:47:39;11.40;1.00
18317;DHT22;9284;52.298;21.164;2024-03-23T15:50:07;11.40;1.00
18317;DHT22;9284;52.298;21.164;2024-03-23T15:52:35;11.30;1.00
18317;DHT22;9284;52.298;21.164;2024-03-23T15:55:02;11.30;1.00
18317;DHT22;9284;52.298;21.164;2024-03-23T15:57:33;11.30;1.00
18317;DHT22;9284;52.298;21.164;2024-03-23T15:59:59;11.20;1.00
18317;DHT22;9284;52.298;21.164;2024-03-23T16:02:28;11.20;1.00
18317;DHT22;9284;52.298;21.164;2024-03-23T16:04:54;11.10;1.00
18317;DHT22;9284;52.298;21.164;2024-03-23T16:07:24;11.00;1.00
18317;DHT22;9284;52.298;21.164;2024-03-23T16:09:50;11.00;1.00
18317;DHT22;9284;52.298;21.164;2024-03-23T16:12:17;11.00;1.00
18317;DHT22;9284;52.298;21.164;2024-03-23T16:14:43;10.90;1.00
18317;DHT22;9284;52.298;21.164;2024-03-23T16:17:11;10.90;1.00
18317;DHT22;9284;52.298;21.164;2024-03-23T16:19:39;10.80;1.00
18317;DHT22;9284;52.298;21.164;2024-03-23T16:22:06;10.80;1.00
18317;DHT22;9284;52.298;21.164;2024-03-23T16:24:33;10.80;1.00
18317;DHT22;9284;52.298;21.164;2024-03-23T16:26:59;10.70;1.00
18317;DHT22;9284;52.298;21.164;2024-03-23T16:29:27;10.70;1.00
18317;DHT22;9284;52.298;21.164;2024-03-23T16:31:53;10.70;5.80
18317;DHT22;9284;52.298;21.164;2024-03-23T16:34:21;10.60;18.30
18317;DHT22;9284;52.298;21.164;2024-03-23T16:36:49;10.60;33.90
18317;DHT22;9284;52.298;21.164;2024-03-23T16:39:16;10.60;48.10